sensor_id;sensor_type;location;lat;lon;timestamp;temperature;humidity
69546;SHT31;56766;52.260;20.746;2024-01-16T00:01:12;-1.53;81.94
69546;SHT31;56766;52.260;20.746;2024-01-16T00:03:44;-1.54;81.85
69546;SHT31;56766;52.260;20.746;2024-01-16T00:06:11;-1.54;81.75
69546;SHT31;56766;52.260;20.746;2024-01-16T00:08:38;-1.54;81.98
69546;SHT31;56766;52.260;20.746;2024-01-16T00:11:05;-1.55;81.92
69546;SHT31;56766;52.260;20.746;2024-01-16T00:13:32;-1.56;82.15
69546;SHT31;56766;52.260;20.746;2024-01-16T00:16:01;-1.58;81.90
69546;SHT31;56766;52.260;20.746;2024-01-16T00:18:30;-1.59;82.06
69546;SHT31;56766;52.260;20.746;2024-01-16T00:20:56;-1.59;82.34
69546;SHT31;56766;52.260;20.746;2024-01-16T00:23:23;-1.59;82.28
69546;SHT31;56766;52.260;20.746;2024-01-16T00:25:51;-1.60;82.00
69546;SHT31;56766;52.260;20.746;2024-01-16T00:28:18;-1.61;81.95
69546;SHT31;56766;52.260;20.746;2024-01-16T00:30:46;-1.60;81.74
69546;SHT31;56766;52.260;20.746;2024-01-16T00:33:13;-1.61;81.47
69546;SHT31;56766;52.260;20.746;2024-01-16T00:35:40;-1.61;81.79
69546;SHT31;56766;52.260;20.746;2024-01-16T00:38:06;-1.60;82.03
69546;SHT31;56766;52.260;20.746;2024-01-16T00:40:33;-1.61;82.10
69546;SHT31;56766;52.260;20.746;2024-01-16T00:43:00;-1.62;81.84
69546;SHT31;56766;52.260;20.746;2024-01-16T00:45:26;-1.62;81.62
69546;SHT31;56766;52.260;20.746;2024-01-16T00:47:53;-1.63;81.39
69546;SHT31;56766;52.260;20.746;2024-01-16T00:50:20;-1.62;81.37
69546;SHT31;56766;52.260;20.746;2024-01-16T00:52:46;-1.62;81.58
69546;SHT31;56766;52.260;20.746;2024-01-16T00:55:13;-1.63;81.78
69546;SHT31;56766;52.260;20.746;2024-01-16T00:57:39;-1.61;81.71
69546;SHT31;56766;52.260;20.746;2024-01-16T01:00:07;-1.62;81.74
69546;SHT31;56766;52.260;20.746;2024-01-16T01:02:36;-1.63;81.54
69546;SHT31;56766;52.260;20.746;2024-01-16T01:05:03;-1.63;81.68
69546;SHT31;56766;52.260;20.746;2024-01-16T01:07:29;-1.63;81.82
69546;SHT31;56766;52.260;20.746;2024-01-16T01:09:56;-1.63;81.91
69546;SHT31;56766;52.260;20.746;2024-01-16T01:12:24;-1.64;81.95
69546;SHT31;56766;52.260;20.746;2024-01-16T01:14:50;-1.68;82.09
69546;SHT31;56766;52.260;20.746;2024-01-16T01:17:17;-1.75;82.10
69546;SHT31;56766;52.260;20.746;2024-01-16T01:19:45;-1.80;82.15
69546;SHT31;56766;52.260;20.746;2024-01-16T01:22:12;-1.82;82.31
69546;SHT31;56766;52.260;20.746;2024-01-16T01:24:39;-1.85;82.20
69546;SHT31;56766;52.260;20.746;2024-01-16T01:27:05;-1.91;82.30
69546;SHT31;56766;52.260;20.746;2024-01-16T01:29:32;-1.95;82.16
69546;SHT31;56766;52.260;20.746;2024-01-16T01:31:59;-1.99;82.09
69546;SHT31;56766;52.260;20.746;2024-01-16T01:34:26;-2.02;82.13
69546;SHT31;56766;52.260;20.746;2024-01-16T01:36:52;-2.04;82.20
69546;SHT31;56766;52.260;20.746;2024-01-16T01:39:19;-2.08;82.16
69546;SHT31;56766;52.260;20.746;2024-01-16T01:41:45;-2.10;82.13
69546;SHT31;56766;52.260;20.746;2024-01-16T01:44:12;-2.11;81.87
69546;SHT31;56766;52.260;20.746;2024-01-16T01:46:43;-2.14;81.55
69546;SHT31;56766;52.260;20.746;2024-01-16T01:49:13;-2.17;81.18
69546;SHT31;56766;52.260;20.746;2024-01-16T01:51:43;-2.19;80.54
69546;SHT31;56766;52.260;20.746;2024-01-16T01:54:13;-2.22;80.03
69546;SHT31;56766;52.260;20.746;2024-01-16T01:56:46;-2.27;78.48
69546;SHT31;56766;52.260;20.746;2024-01-16T01:59:17;-2.31;78.46
69546;SHT31;56766;52.260;20.746;2024-01-16T02:01:48;-2.38;78.63
69546;SHT31;56766;52.260;20.746;2024-01-16T02:04:20;-2.46;78.25
69546;SHT31;56766;52.260;20.746;2024-01-16T02:06:48;-2.53;77.93
69546;SHT31;56766;52.260;20.746;2024-01-16T02:09:15;-2.56;77.57
69546;SHT31;56766;52.260;20.746;2024-01-16T02:11:42;-2.58;78.02
69546;SHT31;56766;52.260;20.746;2024-01-16T02:14:10;-2.64;78.08
69546;SHT31;56766;52.260;20.746;2024-01-16T02:16:41;-2.70;77.96
69546;SHT31;56766;52.260;20.746;2024-01-16T02:19:08;-2.73;78.24
69546;SHT31;56766;52.260;20.746;2024-01-16T02:21:47;-2.77;78.32
69546;SHT31;56766;52.260;20.746;2024-01-16T02:24:16;-2.79;77.97
69546;SHT31;56766;52.260;20.746;2024-01-16T02:26:45;-2.80;77.67
69546;SHT31;56766;52.260;20.746;2024-01-16T02:29:11;-2.80;77.59
69546;SHT31;56766;52.260;20.746;2024-01-16T02:31:38;-2.85;77.76
69546;SHT31;56766;52.260;20.746;2024-01-16T02:34:05;-2.89;77.66
69546;SHT31;56766;52.260;20.746;2024-01-16T02:36:32;-2.92;77.69
69546;SHT31;56766;52.260;20.746;2024-01-16T02:39:00;-2.92;77.89
69546;SHT31;56766;52.260;20.746;2024-01-16T02:41:27;-2.96;78.23
69546;SHT31;56766;52.260;20.746;2024-01-16T02:43:53;-2.98;78.29
69546;SHT31;56766;52.260;20.746;2024-01-16T02:46:20;-2.99;78.36
69546;SHT31;56766;52.260;20.746;2024-01-16T02:48:47;-2.99;78.51
69546;SHT31;56766;52.260;20.746;2024-01-16T02:51:13;-2.98;78.25
69546;SHT31;56766;52.260;20.746;2024-01-16T02:53:42;-3.00;78.73
69546;SHT31;56766;52.260;20.746;2024-01-16T02:56:08;-3.02;78.93
69546;SHT31;56766;52.260;20.746;2024-01-16T02:58:36;-3.04;78.59
69546;SHT31;56766;52.260;20.746;2024-01-16T03:01:03;-3.05;78.57
69546;SHT31;56766;52.260;20.746;2024-01-16T03:03:30;-3.08;78.91
69546;SHT31;56766;52.260;20.746;2024-01-16T03:05:56;-3.11;78.92
69546;SHT31;56766;52.260;20.746;2024-01-16T03:08:23;-3.15;78.69
69546;SHT31;56766;52.260;20.746;2024-01-16T03:10:50;-3.18;79.07
69546;SHT31;56766;52.260;20.746;2024-01-16T03:13:17;-3.27;79.04
69546;SHT31;56766;52.260;20.746;2024-01-16T03:15:44;-3.33;78.85
69546;SHT31;56766;52.260;20.746;2024-01-16T03:18:10;-3.40;78.85
69546;SHT31;56766;52.260;20.746;2024-01-16T03:20:37;-3.45;79.11
69546;SHT31;56766;52.260;20.746;2024-01-16T03:23:04;-3.51;79.10
69546;SHT31;56766;52.260;20.746;2024-01-16T03:25:31;-3.57;79.23
69546;SHT31;56766;52.260;20.746;2024-01-16T03:27:58;-3.63;79.30
69546;SHT31;56766;52.260;20.746;2024-01-16T03:30:25;-3.69;79.40
69546;SHT31;56766;52.260;20.746;2024-01-16T03:32:52;-3.77;79.39
69546;SHT31;56766;52.260;20.746;2024-01-16T03:35:18;-3.84;79.51
69546;SHT31;56766;52.260;20.746;2024-01-16T03:37:45;-3.91;79.63
69546;SHT31;56766;52.260;20.746;2024-01-16T03:40:12;-3.98;79.91
69546;SHT31;56766;52.260;20.746;2024-01-16T03:42:39;-4.06;79.94
69546;SHT31;56766;52.260;20.746;2024-01-16T03:45:06;-4.12;80.14
69546;SHT31;56766;52.260;20.746;2024-01-16T03:47:33;-4.19;80.35
69546;SHT31;56766;52.260;20.746;2024-01-16T03:50:00;-4.27;80.50
69546;SHT31;56766;52.260;20.746;2024-01-16T03:52:26;-4.32;80.59
69546;SHT31;56766;52.260;20.746;2024-01-16T03:54:53;-4.35;80.69
69546;SHT31;56766;52.260;20.746;2024-01-16T03:57:20;-4.36;80.74
69546;SHT31;56766;52.260;20.746;2024-01-16T03:59:46;-4.39;80.80
69546;SHT31;56766;52.260;20.746;2024-01-16T04:02:13;-4.42;80.81
69546;SHT31;56766;52.260;20.746;2024-01-16T04:04:40;-4.45;80.90
69546;SHT31;56766;52.260;20.746;2024-01-16T04:07:07;-4.50;80.90
69546;SHT31;56766;52.260;20.746;2024-01-16T04:09:34;-4.54;81.22
69546;SHT31;56766;52.260;20.746;2024-01-16T04:12:00;-4.58;81.17
69546;SHT31;56766;52.260;20.746;2024-01-16T04:14:27;-4.60;81.23
69546;SHT31;56766;52.260;20.746;2024-01-16T04:16:53;-4.63;81.15
69546;SHT31;56766;52.260;20.746;2024-01-16T04:19:20;-4.65;81.11
69546;SHT31;56766;52.260;20.746;2024-01-16T04:21:47;-4.70;81.13
69546;SHT31;56766;52.260;20.746;2024-01-16T04:24:13;-4.76;81.24
69546;SHT31;56766;52.260;20.746;2024-01-16T04:26:40;-4.80;81.23
69546;SHT31;56766;52.260;20.746;2024-01-16T04:29:07;-4.85;81.54
69546;SHT31;56766;52.260;20.746;2024-01-16T04:31:39;-4.89;81.71
69546;SHT31;56766;52.260;20.746;2024-01-16T04:34:07;-4.95;81.54
69546;SHT31;56766;52.260;20.746;2024-01-16T04:36:34;-5.00;81.60
69546;SHT31;56766;52.260;20.746;2024-01-16T04:39:01;-5.04;81.65
69546;SHT31;56766;52.260;20.746;2024-01-16T04:41:29;-5.13;81.63
69546;SHT31;56766;52.260;20.746;2024-01-16T04:43:56;-5.22;81.67
69546;SHT31;56766;52.260;20.746;2024-01-16T04:46:23;-5.31;81.80
69546;SHT31;56766;52.260;20.746;2024-01-16T04:48:49;-5.40;81.96
69546;SHT31;56766;52.260;20.746;2024-01-16T04:51:16;-5.44;82.30
69546;SHT31;56766;52.260;20.746;2024-01-16T04:53:43;-5.48;82.49
69546;SHT31;56766;52.260;20.746;2024-01-16T04:56:09;-5.49;82.72
69546;SHT31;56766;52.260;20.746;2024-01-16T04:58:36;-5.51;82.95
69546;SHT31;56766;52.260;20.746;2024-01-16T05:01:02;-5.53;83.09
69546;SHT31;56766;52.260;20.746;2024-01-16T05:03:29;-5.59;82.94
69546;SHT31;56766;52.260;20.746;2024-01-16T05:05:56;-5.59;83.17
69546;SHT31;56766;52.260;20.746;2024-01-16T05:08:23;-5.55;83.29
69546;SHT31;56766;52.260;20.746;2024-01-16T05:10:50;-5.44;83.36
69546;SHT31;56766;52.260;20.746;2024-01-16T05:13:17;-5.36;83.20
69546;SHT31;56766;52.260;20.746;2024-01-16T05:15:43;-5.27;83.19
69546;SHT31;56766;52.260;20.746;2024-01-16T05:18:10;-5.19;83.00
69546;SHT31;56766;52.260;20.746;2024-01-16T05:20:37;-5.12;82.86
69546;SHT31;56766;52.260;20.746;2024-01-16T05:23:03;-5.05;82.73
69546;SHT31;56766;52.260;20.746;2024-01-16T05:25:30;-4.99;82.45
69546;SHT31;56766;52.260;20.746;2024-01-16T05:27:57;-4.90;82.29
69546;SHT31;56766;52.260;20.746;2024-01-16T05:30:23;-4.86;82.20
69546;SHT31;56766;52.260;20.746;2024-01-16T05:32:50;-4.83;81.86
69546;SHT31;56766;52.260;20.746;2024-01-16T05:35:18;-4.79;81.67
69546;SHT31;56766;52.260;20.746;2024-01-16T05:37:45;-4.77;81.84
69546;SHT31;56766;52.260;20.746;2024-01-16T05:40:11;-4.74;81.66
69546;SHT31;56766;52.260;20.746;2024-01-16T05:42:39;-4.71;81.40
69546;SHT31;56766;52.260;20.746;2024-01-16T05:45:06;-4.68;81.43
69546;SHT31;56766;52.260;20.746;2024-01-16T05:47:33;-4.65;81.18
69546;SHT31;56766;52.260;20.746;2024-01-16T05:49:59;-4.62;80.85
69546;SHT31;56766;52.260;20.746;2024-01-16T05:52:26;-4.59;80.87
69546;SHT31;56766;52.260;20.746;2024-01-16T05:54:53;-4.57;80.71
69546;SHT31;56766;52.260;20.746;2024-01-16T05:57:23;-4.57;80.37
69546;SHT31;56766;52.260;20.746;2024-01-16T05:59:50;-4.55;80.23
69546;SHT31;56766;52.260;20.746;2024-01-16T06:02:17;-4.55;79.95
69546;SHT31;56766;52.260;20.746;2024-01-16T06:04:43;-4.53;80.01
69546;SHT31;56766;52.260;20.746;2024-01-16T06:07:10;-4.52;79.77
69546;SHT31;56766;52.260;20.746;2024-01-16T06:09:38;-4.50;79.86
69546;SHT31;56766;52.260;20.746;2024-01-16T06:12:08;-4.47;80.01
69546;SHT31;56766;52.260;20.746;2024-01-16T06:14:35;-4.46;80.01
69546;SHT31;56766;52.260;20.746;2024-01-16T06:17:02;-4.45;80.14
69546;SHT31;56766;52.260;20.746;2024-01-16T06:19:29;-4.44;79.75
69546;SHT31;56766;52.260;20.746;2024-01-16T06:21:56;-4.45;79.44
69546;SHT31;56766;52.260;20.746;2024-01-16T06:24:23;-4.42;79.37
69546;SHT31;56766;52.260;20.746;2024-01-16T06:26:50;-4.41;79.38
69546;SHT31;56766;52.260;20.746;2024-01-16T06:29:17;-4.39;79.28
69546;SHT31;56766;52.260;20.746;2024-01-16T06:31:44;-4.39;79.10
69546;SHT31;56766;52.260;20.746;2024-01-16T06:34:10;-4.40;79.31
69546;SHT31;56766;52.260;20.746;2024-01-16T06:36:37;-4.39;79.34
69546;SHT31;56766;52.260;20.746;2024-01-16T06:39:03;-4.41;78.90
69546;SHT31;56766;52.260;20.746;2024-01-16T06:41:30;-4.41;78.96
69546;SHT31;56766;52.260;20.746;2024-01-16T06:43:57;-4.42;78.56
69546;SHT31;56766;52.260;20.746;2024-01-16T06:46:23;-4.42;78.90
69546;SHT31;56766;52.260;20.746;2024-01-16T06:48:52;-4.43;78.83
69546;SHT31;56766;52.260;20.746;2024-01-16T06:51:18;-4.44;78.33
69546;SHT31;56766;52.260;20.746;2024-01-16T06:53:45;-4.42;78.64
69546;SHT31;56766;52.260;20.746;2024-01-16T06:56:12;-4.41;78.85
69546;SHT31;56766;52.260;20.746;2024-01-16T06:58:38;-4.40;78.81
69546;SHT31;56766;52.260;20.746;2024-01-16T07:01:05;-4.39;79.11
69546;SHT31;56766;52.260;20.746;2024-01-16T07:03:32;-4.40;78.89
69546;SHT31;56766;52.260;20.746;2024-01-16T07:05:59;-4.40;78.49
69546;SHT31;56766;52.260;20.746;2024-01-16T07:08:25;-4.42;78.39
69546;SHT31;56766;52.260;20.746;2024-01-16T07:10:52;-4.43;78.61
69546;SHT31;56766;52.260;20.746;2024-01-16T07:13:20;-4.45;78.51
69546;SHT31;56766;52.260;20.746;2024-01-16T07:15:46;-4.47;78.29
69546;SHT31;56766;52.260;20.746;2024-01-16T07:18:13;-4.51;78.22
69546;SHT31;56766;52.260;20.746;2024-01-16T07:20:40;-4.54;78.36
69546;SHT31;56766;52.260;20.746;2024-01-16T07:23:07;-4.58;78.29
69546;SHT31;56766;52.260;20.746;2024-01-16T07:25:33;-4.64;78.02
69546;SHT31;56766;52.260;20.746;2024-01-16T07:28:00;-4.70;77.74
69546;SHT31;56766;52.260;20.746;2024-01-16T07:30:27;-4.74;77.88
69546;SHT31;56766;52.260;20.746;2024-01-16T07:32:53;-4.78;77.51
69546;SHT31;56766;52.260;20.746;2024-01-16T07:35:20;-4.80;77.58
69546;SHT31;56766;52.260;20.746;2024-01-16T07:37:47;-4.83;77.51
69546;SHT31;56766;52.260;20.746;2024-01-16T07:40:14;-4.84;77.46
69546;SHT31;56766;52.260;20.746;2024-01-16T07:42:43;-4.78;77.35
69546;SHT31;56766;52.260;20.746;2024-01-16T07:45:10;-4.73;77.29
69546;SHT31;56766;52.260;20.746;2024-01-16T07:47:37;-4.67;77.53
69546;SHT31;56766;52.260;20.746;2024-01-16T07:50:04;-4.55;77.10
69546;SHT31;56766;52.260;20.746;2024-01-16T07:52:31;-4.42;76.31
69546;SHT31;56766;52.260;20.746;2024-01-16T07:54:58;-4.27;76.32
69546;SHT31;56766;52.260;20.746;2024-01-16T07:57:24;-4.15;76.23
69546;SHT31;56766;52.260;20.746;2024-01-16T07:59:51;-4.02;75.96
69546;SHT31;56766;52.260;20.746;2024-01-16T08:02:18;-3.95;75.18
69546;SHT31;56766;52.260;20.746;2024-01-16T08:04:45;-3.87;75.00
69546;SHT31;56766;52.260;20.746;2024-01-16T08:07:12;-3.79;74.63
69546;SHT31;56766;52.260;20.746;2024-01-16T08:09:38;-3.69;75.12
69546;SHT31;56766;52.260;20.746;2024-01-16T08:12:05;-3.63;73.94
69546;SHT31;56766;52.260;20.746;2024-01-16T08:14:32;-3.57;74.28
69546;SHT31;56766;52.260;20.746;2024-01-16T08:16:59;-3.50;73.75
69546;SHT31;56766;52.260;20.746;2024-01-16T08:19:25;-3.41;73.92
69546;SHT31;56766;52.260;20.746;2024-01-16T08:21:52;-3.33;73.81
69546;SHT31;56766;52.260;20.746;2024-01-16T08:24:19;-3.29;72.80
69546;SHT31;56766;52.260;20.746;2024-01-16T08:26:45;-3.24;73.07
69546;SHT31;56766;52.260;20.746;2024-01-16T08:29:12;-3.23;71.26
69546;SHT31;56766;52.260;20.746;2024-01-16T08:31:39;-3.21;71.66
69546;SHT31;56766;52.260;20.746;2024-01-16T08:34:05;-3.10;72.24
69546;SHT31;56766;52.260;20.746;2024-01-16T08:36:32;-3.03;72.10
69546;SHT31;56766;52.260;20.746;2024-01-16T08:38:59;-2.97;71.63
69546;SHT31;56766;52.260;20.746;2024-01-16T08:41:25;-2.93;71.02
69546;SHT31;56766;52.260;20.746;2024-01-16T08:43:52;-2.92;70.45
69546;SHT31;56766;52.260;20.746;2024-01-16T08:46:20;-2.87;70.75
69546;SHT31;56766;52.260;20.746;2024-01-16T08:48:48;-2.83;70.49
69546;SHT31;56766;52.260;20.746;2024-01-16T08:51:14;-2.84;69.73
69546;SHT31;56766;52.260;20.746;2024-01-16T08:53:41;-2.80;70.37
69546;SHT31;56766;52.260;20.746;2024-01-16T08:56:08;-2.76;70.52
69546;SHT31;56766;52.260;20.746;2024-01-16T08:58:35;-2.71;70.06
69546;SHT31;56766;52.260;20.746;2024-01-16T09:01:05;-2.68;69.36
69546;SHT31;56766;52.260;20.746;2024-01-16T09:03:33;-2.64;69.57
69546;SHT31;56766;52.260;20.746;2024-01-16T09:06:01;-2.61;69.53
69546;SHT31;56766;52.260;20.746;2024-01-16T09:08:29;-2.59;68.77
69546;SHT31;56766;52.260;20.746;2024-01-16T09:10:56;-2.53;69.20
69546;SHT31;56766;52.260;20.746;2024-01-16T09:13:22;-2.52;68.71
69546;SHT31;56766;52.260;20.746;2024-01-16T09:15:50;-2.49;68.57
69546;SHT31;56766;52.260;20.746;2024-01-16T09:18:16;-2.44;68.77
69546;SHT31;56766;52.260;20.746;2024-01-16T09:20:43;-2.39;68.88
69546;SHT31;56766;52.260;20.746;2024-01-16T09:23:10;-2.34;69.16
69546;SHT31;56766;52.260;20.746;2024-01-16T09:25:37;-2.32;68.17
69546;SHT31;56766;52.260;20.746;2024-01-16T09:28:04;-2.29;68.38
69546;SHT31;56766;52.260;20.746;2024-01-16T09:30:31;-2.26;68.23
69546;SHT31;56766;52.260;20.746;2024-01-16T09:32:57;-2.25;67.92
69546;SHT31;56766;52.260;20.746;2024-01-16T09:35:24;-2.23;67.93
69546;SHT31;56766;52.260;20.746;2024-01-16T09:37:51;-2.21;67.37
69546;SHT31;56766;52.260;20.746;2024-01-16T09:40:18;-2.21;67.05
69546;SHT31;56766;52.260;20.746;2024-01-16T09:42:45;-2.18;67.54
69546;SHT31;56766;52.260;20.746;2024-01-16T09:45:19;-2.13;67.40
69546;SHT31;56766;52.260;20.746;2024-01-16T09:47:50;-2.10;66.49
69546;SHT31;56766;52.260;20.746;2024-01-16T09:50:18;-2.10;66.50
69546;SHT31;56766;52.260;20.746;2024-01-16T09:52:46;-2.07;66.93
69546;SHT31;56766;52.260;20.746;2024-01-16T09:55:17;-2.01;67.10
69546;SHT31;56766;52.260;20.746;2024-01-16T09:57:45;-2.00;66.18
69546;SHT31;56766;52.260;20.746;2024-01-16T10:00:12;-1.96;66.17
69546;SHT31;56766;52.260;20.746;2024-01-16T10:02:42;-1.90;65.33
69546;SHT31;56766;52.260;20.746;2024-01-16T10:05:13;-1.87;65.84
69546;SHT31;56766;52.260;20.746;2024-01-16T10:07:42;-1.79;66.30
69546;SHT31;56766;52.260;20.746;2024-01-16T10:10:11;-1.72;65.79
69546;SHT31;56766;52.260;20.746;2024-01-16T10:12:39;-1.66;66.04
69546;SHT31;56766;52.260;20.746;2024-01-16T10:15:07;-1.67;64.74
69546;SHT31;56766;52.260;20.746;2024-01-16T10:17:40;-1.74;63.71
69546;SHT31;56766;52.260;20.746;2024-01-16T10:20:11;-1.79;63.86
69546;SHT31;56766;52.260;20.746;2024-01-16T10:22:53;-1.75;64.66
69546;SHT31;56766;52.260;20.746;2024-01-16T10:25:21;-1.78;64.04
69546;SHT31;56766;52.260;20.746;2024-01-16T10:27:49;-1.76;64.30
69546;SHT31;56766;52.260;20.746;2024-01-16T10:30:21;-1.72;64.03
69546;SHT31;56766;52.260;20.746;2024-01-16T10:32:49;-1.62;64.46
69546;SHT31;56766;52.260;20.746;2024-01-16T10:35:16;-1.60;64.59
69546;SHT31;56766;52.260;20.746;2024-01-16T10:40:35;-1.56;64.13
69546;SHT31;56766;52.260;20.746;2024-01-16T10:43:03;-1.55;64.52
69546;SHT31;56766;52.260;20.746;2024-01-16T10:45:34;-1.52;64.64
69546;SHT31;56766;52.260;20.746;2024-01-16T10:48:07;-1.46;64.81
69546;SHT31;56766;52.260;20.746;2024-01-16T10:50:37;-1.45;65.32
69546;SHT31;56766;52.260;20.746;2024-01-16T10:53:06;-1.44;65.31
69546;SHT31;56766;52.260;20.746;2024-01-16T10:55:59;-1.39;65.10
69546;SHT31;56766;52.260;20.746;2024-01-16T10:58:30;-1.34;65.86
69546;SHT31;56766;52.260;20.746;2024-01-16T11:01:02;-1.37;66.41
69546;SHT31;56766;52.260;20.746;2024-01-16T11:03:47;-1.41;65.83
69546;SHT31;56766;52.260;20.746;2024-01-16T11:06:17;-1.50;65.73
69546;SHT31;56766;52.260;20.746;2024-01-16T11:08:48;-1.48;66.94
69546;SHT31;56766;52.260;20.746;2024-01-16T11:11:15;-1.37;67.44
69546;SHT31;56766;52.260;20.746;2024-01-16T11:13:42;-1.39;67.37
69546;SHT31;56766;52.260;20.746;2024-01-16T11:16:11;-1.42;67.49
69546;SHT31;56766;52.260;20.746;2024-01-16T11:18:38;-1.42;67.91
69546;SHT31;56766;52.260;20.746;2024-01-16T11:21:08;-1.43;67.68
69546;SHT31;56766;52.260;20.746;2024-01-16T11:23:38;-1.49;67.61
69546;SHT31;56766;52.260;20.746;2024-01-16T11:26:27;-1.53;67.93
69546;SHT31;56766;52.260;20.746;2024-01-16T11:28:56;-1.59;68.05
69546;SHT31;56766;52.260;20.746;2024-01-16T11:31:31;-1.66;67.92
69546;SHT31;56766;52.260;20.746;2024-01-16T11:34:01;-1.77;67.82
69546;SHT31;56766;52.260;20.746;2024-01-16T11:37:01;-1.85;68.23
69546;SHT31;56766;52.260;20.746;2024-01-16T11:39:29;-1.90;68.22
69546;SHT31;56766;52.260;20.746;2024-01-16T11:41:57;-1.85;68.31
69546;SHT31;56766;52.260;20.746;2024-01-16T11:44:46;-1.78;68.32
69546;SHT31;56766;52.260;20.746;2024-01-16T11:47:22;-1.64;68.93
69546;SHT31;56766;52.260;20.746;2024-01-16T11:49:52;-1.51;68.87
69546;SHT31;56766;52.260;20.746;2024-01-16T11:55:27;-1.30;68.55
69546;SHT31;56766;52.260;20.746;2024-01-16T12:00:41;-1.25;67.90
69546;SHT31;56766;52.260;20.746;2024-01-16T12:03:10;-1.31;68.19
69546;SHT31;56766;52.260;20.746;2024-01-16T12:05:43;-1.37;68.24
69546;SHT31;56766;52.260;20.746;2024-01-16T12:08:20;-1.47;67.88
69546;SHT31;56766;52.260;20.746;2024-01-16T12:10:51;-1.48;68.13
69546;SHT31;56766;52.260;20.746;2024-01-16T12:13:18;-1.40;68.21
69546;SHT31;56766;52.260;20.746;2024-01-16T12:15:45;-1.29;68.08
69546;SHT31;56766;52.260;20.746;2024-01-16T12:18:18;-1.18;67.90
69546;SHT31;56766;52.260;20.746;2024-01-16T12:20:45;-1.03;67.97
69546;SHT31;56766;52.260;20.746;2024-01-16T12:23:13;-0.97;67.57
69546;SHT31;56766;52.260;20.746;2024-01-16T12:25:40;-0.97;67.58
69546;SHT31;56766;52.260;20.746;2024-01-16T12:28:08;-1.00;67.52
69546;SHT31;56766;52.260;20.746;2024-01-16T12:30:38;-0.94;67.57
69546;SHT31;56766;52.260;20.746;2024-01-16T12:33:10;-0.87;67.41
69546;SHT31;56766;52.260;20.746;2024-01-16T12:35:43;-0.78;67.38
69546;SHT31;56766;52.260;20.746;2024-01-16T12:38:15;-0.70;67.20
69546;SHT31;56766;52.260;20.746;2024-01-16T12:40:48;-0.64;66.97
69546;SHT31;56766;52.260;20.746;2024-01-16T12:43:17;-0.56;67.08
69546;SHT31;56766;52.260;20.746;2024-01-16T12:45:45;-0.52;66.89
69546;SHT31;56766;52.260;20.746;2024-01-16T12:48:12;-0.50;66.82
69546;SHT31;56766;52.260;20.746;2024-01-16T12:50:39;-0.55;66.47
69546;SHT31;56766;52.260;20.746;2024-01-16T12:53:09;-0.60;66.94
69546;SHT31;56766;52.260;20.746;2024-01-16T12:55:39;-0.64;66.69
69546;SHT31;56766;52.260;20.746;2024-01-16T12:58:21;-0.77;66.37
69546;SHT31;56766;52.260;20.746;2024-01-16T13:00:54;-0.89;66.50
69546;SHT31;56766;52.260;20.746;2024-01-16T13:03:25;-0.86;66.39
69546;SHT31;56766;52.260;20.746;2024-01-16T13:05:58;-0.82;66.48
69546;SHT31;56766;52.260;20.746;2024-01-16T13:08:27;-0.72;66.52
69546;SHT31;56766;52.260;20.746;2024-01-16T13:11:04;-0.72;66.26
69546;SHT31;56766;52.260;20.746;2024-01-16T13:13:33;-0.79;66.52
69546;SHT31;56766;52.260;20.746;2024-01-16T13:16:02;-0.82;66.64
69546;SHT31;56766;52.260;20.746;2024-01-16T13:18:33;-0.89;66.55
69546;SHT31;56766;52.260;20.746;2024-01-16T13:21:01;-0.92;66.60
69546;SHT31;56766;52.260;20.746;2024-01-16T13:23:30;-0.92;66.61
69546;SHT31;56766;52.260;20.746;2024-01-16T13:26:16;-0.96;66.06
69546;SHT31;56766;52.260;20.746;2024-01-16T13:28:43;-0.93;66.51
69546;SHT31;56766;52.260;20.746;2024-01-16T13:31:10;-0.90;65.92
69546;SHT31;56766;52.260;20.746;2024-01-16T13:33:36;-0.88;66.18
69546;SHT31;56766;52.260;20.746;2024-01-16T13:36:03;-0.83;66.36
69546;SHT31;56766;52.260;20.746;2024-01-16T13:38:31;-0.81;66.31
69546;SHT31;56766;52.260;20.746;2024-01-16T13:40:57;-0.81;66.33
69546;SHT31;56766;52.260;20.746;2024-01-16T13:43:24;-0.88;66.01
69546;SHT31;56766;52.260;20.746;2024-01-16T13:45:51;-0.99;66.27
69546;SHT31;56766;52.260;20.746;2024-01-16T13:48:18;-0.99;66.69
69546;SHT31;56766;52.260;20.746;2024-01-16T13:50:45;-1.06;66.11
69546;SHT31;56766;52.260;20.746;2024-01-16T13:53:11;-1.15;66.55
69546;SHT31;56766;52.260;20.746;2024-01-16T13:55:40;-1.24;66.56
69546;SHT31;56766;52.260;20.746;2024-01-16T13:58:08;-1.35;66.30
69546;SHT31;56766;52.260;20.746;2024-01-16T14:00:35;-1.53;66.18
69546;SHT31;56766;52.260;20.746;2024-01-16T14:03:02;-1.68;66.76
69546;SHT31;56766;52.260;20.746;2024-01-16T14:05:30;-1.78;67.30
69546;SHT31;56766;52.260;20.746;2024-01-16T14:07:56;-1.85;67.54
69546;SHT31;56766;52.260;20.746;2024-01-16T14:10:23;-1.92;67.62
69546;SHT31;56766;52.260;20.746;2024-01-16T14:12:52;-2.04;67.49
69546;SHT31;56766;52.260;20.746;2024-01-16T14:15:20;-2.12;67.92
69546;SHT31;56766;52.260;20.746;2024-01-16T14:17:52;-2.20;67.99
69546;SHT31;56766;52.260;20.746;2024-01-16T14:20:22;-2.27;68.04
69546;SHT31;56766;52.260;20.746;2024-01-16T14:22:53;-2.32;68.40
69546;SHT31;56766;52.260;20.746;2024-01-16T14:25:20;-2.38;68.58
69546;SHT31;56766;52.260;20.746;2024-01-16T14:28:01;-2.46;68.77
69546;SHT31;56766;52.260;20.746;2024-01-16T14:30:33;-2.58;68.77
69546;SHT31;56766;52.260;20.746;2024-01-16T14:33:01;-2.69;68.94
69546;SHT31;56766;52.260;20.746;2024-01-16T14:35:28;-2.82;69.07
69546;SHT31;56766;52.260;20.746;2024-01-16T14:37:55;-2.96;69.09
69546;SHT31;56766;52.260;20.746;2024-01-16T14:40:22;-3.12;69.24
69546;SHT31;56766;52.260;20.746;2024-01-16T14:42:55;-3.25;69.62
69546;SHT31;56766;52.260;20.746;2024-01-16T14:45:26;-3.37;69.73
69546;SHT31;56766;52.260;20.746;2024-01-16T14:47:53;-3.51;69.97
69546;SHT31;56766;52.260;20.746;2024-01-16T14:50:20;-3.65;70.34
69546;SHT31;56766;52.260;20.746;2024-01-16T14:52:49;-3.79;70.40
69546;SHT31;56766;52.260;20.746;2024-01-16T14:55:17;-3.97;70.44
69546;SHT31;56766;52.260;20.746;2024-01-16T14:57:46;-4.13;70.79
69546;SHT31;56766;52.260;20.746;2024-01-16T15:00:18;-4.27;71.07
69546;SHT31;56766;52.260;20.746;2024-01-16T15:02:54;-4.42;71.24
69546;SHT31;56766;52.260;20.746;2024-01-16T15:05:21;-4.58;71.47
69546;SHT31;56766;52.260;20.746;2024-01-16T15:07:50;-4.74;71.64
69546;SHT31;56766;52.260;20.746;2024-01-16T15:10:20;-4.88;71.91
69546;SHT31;56766;52.260;20.746;2024-01-16T15:12:48;-5.01;72.14
69546;SHT31;56766;52.260;20.746;2024-01-16T15:15:15;-5.13;72.48
69546;SHT31;56766;52.260;20.746;2024-01-16T15:17:43;-5.24;72.76
69546;SHT31;56766;52.260;20.746;2024-01-16T15:20:11;-5.36;73.04
69546;SHT31;56766;52.260;20.746;2024-01-16T15:22:45;-5.46;73.24
69546;SHT31;56766;52.260;20.746;2024-01-16T15:25:13;-5.57;73.53
69546;SHT31;56766;52.260;20.746;2024-01-16T15:27:42;-5.67;73.77
69546;SHT31;56766;52.260;20.746;2024-01-16T15:30:10;-5.77;73.97